createdAt,value
2023-01-20T00:00:01.724Z,0.57
2023-01-20T00:01:01.754Z,0.57
2023-01-20T00:02:01.709Z,0.57
2023-01-20T00:03:01.726Z,0.58
2023-01-20T00:04:01.883Z,0.58
2023-01-20T00:05:01.715Z,0.58
2023-01-20T00:06:01.690Z,0.58
2023-01-20T00:07:01.681Z,0.61
2023-01-20T00:08:01.650Z,0.62
2023-01-20T00:09:01.665Z,0.62
2023-01-20T00:10:01.679Z,0.66
2023-01-20T00:11:01.648Z,0.68
2023-01-20T00:12:01.611Z,0.68
2023-01-20T00:13:01.625Z,0.66
2023-01-20T00:14:01.593Z,0.66
2023-01-20T00:15:01.602Z,0.66
2023-01-20T00:16:01.614Z,0.66
2023-01-20T00:17:01.587Z,0.66
2023-01-20T00:18:01.540Z,0.66
2023-01-20T00:19:01.548Z,0.68
2023-01-20T00:20:01.529Z,0.66
2023-01-20T00:21:01.560Z,0.68
2023-01-20T00:22:01.547Z,0.69
2023-01-20T00:23:01.568Z,0.69
2023-01-20T00:24:01.487Z,0.72
2023-01-20T00:25:01.490Z,0.70
2023-01-20T00:26:01.462Z,0.73
2023-01-20T00:27:01.478Z,0.75
2023-01-20T00:28:01.443Z,0.73
2023-01-20T00:29:01.451Z,0.76
2023-01-20T00:30:01.424Z,0.75
2023-01-20T00:31:01.512Z,0.76
2023-01-20T00:32:01.430Z,0.76
2023-01-20T00:33:01.409Z,0.76
2023-01-20T00:34:01.408Z,0.76
2023-01-20T00:35:01.402Z,0.73
2023-01-20T00:36:01.363Z,0.70
2023-01-20T00:37:01.365Z,0.70
2023-01-20T00:38:01.349Z,0.69
2023-01-20T00:39:01.354Z,0.69
2023-01-20T00:40:01.333Z,0.69
2023-01-20T00:41:01.359Z,0.69
2023-01-20T00:42:01.299Z,0.69
2023-01-20T00:43:01.314Z,0.68
2023-01-20T00:44:01.312Z,0.72
2023-01-20T00:45:01.300Z,0.70
2023-01-20T00:46:01.262Z,0.70
2023-01-20T00:47:01.266Z,0.70
2023-01-20T00:48:01.259Z,0.70
2023-01-20T00:49:01.245Z,0.70
2023-01-20T00:50:01.220Z,0.72
2023-01-20T00:51:01.270Z,0.70
2023-01-20T00:52:01.198Z,0.70
2023-01-20T00:53:01.203Z,0.68
2023-01-20T00:54:01.192Z,0.68
2023-01-20T00:55:01.189Z,0.68
2023-01-20T00:56:01.158Z,0.66
2023-01-20T00:57:01.175Z,0.65
2023-01-20T00:58:01.142Z,0.62
2023-01-20T00:59:01.176Z,0.62
2023-01-20T01:00:01.123Z,0.65
2023-01-20T01:01:01.273Z,0.62
2023-01-20T01:02:01.287Z,0.65
2023-01-20T01:03:01.107Z,0.62
2023-01-20T01:04:01.088Z,0.61
2023-01-20T01:05:01.086Z,0.60
2023-01-20T01:06:01.063Z,0.58
2023-01-20T01:07:01.084Z,0.61
2023-01-20T01:08:01.051Z,0.61
2023-01-20T01:09:01.076Z,0.60
2023-01-20T01:10:01.029Z,0.61
2023-01-20T01:11:01.037Z,0.65
2023-01-20T01:12:01.007Z,0.65
2023-01-20T01:13:01.017Z,0.68
2023-01-20T01:14:00.983Z,0.70
2023-01-20T01:15:01.013Z,0.69
2023-01-20T01:16:01.016Z,0.72
2023-01-20T01:17:00.981Z,0.69
2023-01-20T01:18:00.945Z,0.70
2023-01-20T01:19:00.943Z,0.72
2023-01-20T01:20:00.927Z,0.72
2023-01-20T01:21:00.928Z,0.72
2023-01-20T01:22:00.895Z,0.73
2023-01-20T01:23:00.911Z,0.70
2023-01-20T01:24:00.878Z,0.72
2023-01-20T01:25:00.915Z,0.68
2023-01-20T01:26:00.857Z,0.66
2023-01-20T01:27:00.877Z,0.65
2023-01-20T01:28:00.840Z,0.65
2023-01-20T01:29:00.856Z,0.65
2023-01-20T01:30:00.831Z,0.62
2023-01-20T01:31:00.894Z,0.65
2023-01-20T01:32:00.795Z,0.66
2023-01-20T01:33:00.817Z,0.68
2023-01-20T01:34:00.779Z,0.69
2023-01-20T01:35:00.794Z,0.70
2023-01-20T01:36:00.776Z,0.73
2023-01-20T01:37:00.766Z,0.76
2023-01-20T01:38:00.738Z,0.78
2023-01-20T01:39:00.738Z,0.79
2023-01-20T01:40:00.722Z,0.79
2023-01-20T01:41:00.729Z,0.83
2023-01-20T01:42:00.706Z,0.83
2023-01-20T01:43:00.721Z,0.80
2023-01-20T01:44:00.684Z,0.79
2023-01-20T01:45:00.700Z,0.79
2023-01-20T01:46:00.692Z,0.78
2023-01-20T01:47:00.676Z,0.78
2023-01-20T01:48:00.659Z,0.78
2023-01-20T01:49:00.660Z,0.76
2023-01-20T01:50:00.617Z,0.76
2023-01-20T01:51:00.622Z,0.78
2023-01-20T01:52:00.611Z,0.79
2023-01-20T01:53:00.612Z,0.83
2023-01-20T01:54:00.573Z,0.83
2023-01-20T01:55:00.590Z,0.80
2023-01-20T01:56:00.547Z,0.84
2023-01-20T01:57:00.580Z,0.86
2023-01-20T01:58:00.549Z,0.86
2023-01-20T01:59:00.558Z,0.88
2023-01-20T02:00:00.529Z,0.90
2023-01-20T02:01:00.629Z,0.90
2023-01-20T02:02:00.592Z,0.91
2023-01-20T02:03:00.523Z,0.91
2023-01-20T02:04:00.472Z,0.93
2023-01-20T02:05:00.480Z,0.90
2023-01-20T02:06:00.458Z,0.90
2023-01-20T02:07:00.483Z,0.88
2023-01-20T02:08:00.432Z,0.87
2023-01-20T02:09:00.440Z,0.88
2023-01-20T02:10:00.425Z,0.84
2023-01-20T02:11:00.416Z,0.84
2023-01-20T02:12:00.397Z,0.84
2023-01-20T02:13:00.420Z,0.83
2023-01-20T02:14:00.377Z,0.80
2023-01-20T02:15:00.393Z,0.79
2023-01-20T02:16:00.386Z,0.79
2023-01-20T02:17:00.356Z,0.79
2023-01-20T02:18:00.347Z,0.83
2023-01-20T02:19:00.349Z,0.83
2023-01-20T02:20:00.309Z,0.83
2023-01-20T02:21:00.336Z,0.80
2023-01-20T02:22:00.296Z,0.80
2023-01-20T02:23:00.310Z,0.78
2023-01-20T02:24:00.299Z,0.80
2023-01-20T02:25:00.289Z,0.80
2023-01-20T02:26:00.252Z,0.80
2023-01-20T02:27:00.270Z,0.79
2023-01-20T02:28:00.239Z,0.80
2023-01-20T02:29:00.271Z,0.78
2023-01-20T02:30:00.204Z,0.75
2023-01-20T02:31:00.221Z,0.72
2023-01-20T02:32:00.195Z,0.68
2023-01-20T02:33:00.210Z,0.68
2023-01-20T02:34:00.166Z,0.68
2023-01-20T02:35:00.204Z,0.68
2023-01-20T02:36:00.151Z,0.69
2023-01-20T02:37:00.162Z,0.68
2023-01-20T02:38:00.140Z,0.69
2023-01-20T02:39:00.140Z,0.70
2023-01-20T02:40:00.162Z,0.72
2023-01-20T02:41:00.139Z,0.75
2023-01-20T02:42:00.130Z,0.72
2023-01-20T02:43:00.110Z,0.75
2023-01-20T02:44:00.078Z,0.72
2023-01-20T02:45:00.163Z,0.75
2023-01-20T02:46:00.112Z,0.72
2023-01-20T02:47:00.066Z,0.73
2023-01-20T02:48:00.043Z,0.75
2023-01-20T02:49:00.066Z,0.75
2023-01-20T02:50:00.026Z,0.75
2023-01-20T02:51:00.102Z,0.76
2023-01-20T02:52:00.013Z,0.78
2023-01-20T02:53:00.013Z,0.78
2023-01-20T02:53:59.968Z,0.80
2023-01-20T02:54:59.973Z,0.80
2023-01-20T02:55:59.952Z,0.79
2023-01-20T02:56:59.995Z,0.80
2023-01-20T02:57:59.931Z,0.80
2023-01-20T02:58:59.944Z,0.79
2023-01-20T02:59:59.905Z,0.80
2023-01-20T03:01:00.009Z,0.79
2023-01-20T03:01:59.978Z,0.79
2023-01-20T03:02:59.904Z,0.80
2023-01-20T03:03:59.895Z,0.78
2023-01-20T03:04:59.886Z,0.79
2023-01-20T03:05:59.900Z,0.78
2023-01-20T03:06:59.861Z,0.78
2023-01-20T03:07:59.828Z,0.76
2023-01-20T03:08:59.845Z,0.75
2023-01-20T03:09:59.809Z,0.76
2023-01-20T03:10:59.826Z,0.76
2023-01-20T03:11:59.800Z,0.76
2023-01-20T03:12:59.802Z,0.73
2023-01-20T03:13:59.780Z,0.73
2023-01-20T03:14:59.789Z,0.72
2023-01-20T03:15:59.746Z,0.72
2023-01-20T03:16:59.759Z,0.69
2023-01-20T03:17:59.731Z,0.66
2023-01-20T03:18:59.762Z,0.66
2023-01-20T03:19:59.710Z,0.66
2023-01-20T03:20:59.724Z,0.66
2023-01-20T03:21:59.687Z,0.65
2023-01-20T03:22:59.709Z,0.65
2023-01-20T03:23:59.669Z,0.68
2023-01-20T03:24:59.696Z,0.69
2023-01-20T03:25:59.649Z,0.69
2023-01-20T03:26:59.652Z,0.69
2023-01-20T03:27:59.638Z,0.72
2023-01-20T03:28:59.621Z,0.69
2023-01-20T03:29:59.643Z,0.69
2023-01-20T03:30:59.679Z,0.68
2023-01-20T03:31:59.607Z,0.66
2023-01-20T03:32:59.574Z,0.66
2023-01-20T03:33:59.607Z,0.65
2023-01-20T03:34:59.568Z,0.62
2023-01-20T03:35:59.565Z,0.61
2023-01-20T03:36:59.540Z,0.61
2023-01-20T03:37:59.558Z,0.60
2023-01-20T03:38:59.560Z,0.60
2023-01-20T03:39:59.556Z,0.55
2023-01-20T03:40:59.506Z,0.58
2023-01-20T03:41:59.520Z,0.57
2023-01-20T03:42:59.480Z,0.58
2023-01-20T03:43:59.501Z,0.57
2023-01-20T03:44:59.483Z,0.55
2023-01-20T03:45:59.535Z,0.53
2023-01-20T03:47:05.964Z,0.53
2023-01-20T03:47:59.441Z,0.50
2023-01-20T03:48:59.416Z,0.47
2023-01-20T03:49:59.442Z,0.47
2023-01-20T03:50:59.398Z,0.47
2023-01-20T03:51:59.405Z,0.44
2023-01-20T03:52:59.379Z,0.44
2023-01-20T03:53:59.430Z,0.42
2023-01-20T03:54:59.376Z,0.42
2023-01-20T03:55:59.387Z,0.39
2023-01-20T03:56:59.359Z,0.39
2023-01-20T03:57:59.358Z,0.38
2023-01-20T03:58:59.317Z,0.38
2023-01-20T03:59:59.336Z,0.36
2023-01-20T04:00:59.387Z,0.35
2023-01-20T04:01:59.476Z,0.36
2023-01-20T04:02:59.287Z,0.33
2023-01-20T04:03:59.296Z,0.35
2023-01-20T04:04:59.273Z,0.36
2023-01-20T04:05:59.272Z,0.38
2023-01-20T04:06:59.243Z,0.39
2023-01-20T04:07:59.256Z,0.39
2023-01-20T04:08:59.223Z,0.39
2023-01-20T04:09:59.252Z,0.36
2023-01-20T04:10:59.220Z,0.36
2023-01-20T04:11:59.239Z,0.36
2023-01-20T04:12:59.181Z,0.36
2023-01-20T04:13:59.179Z,0.36
2023-01-20T04:14:59.158Z,0.38
2023-01-20T04:15:59.232Z,0.39
2023-01-20T04:16:59.149Z,0.41
2023-01-20T04:17:59.156Z,0.41
2023-01-20T04:18:59.113Z,0.41
2023-01-20T04:19:59.140Z,0.41
2023-01-20T04:20:59.097Z,0.39
2023-01-20T04:21:59.115Z,0.41
2023-01-20T04:22:59.088Z,0.39
2023-01-20T04:23:59.106Z,0.38
2023-01-20T04:24:59.052Z,0.38
2023-01-20T04:25:59.087Z,0.36
2023-01-20T04:26:59.032Z,0.35
2023-01-20T04:27:59.067Z,0.35
2023-01-20T04:28:59.018Z,0.33
2023-01-20T04:29:59.037Z,0.33
2023-01-20T04:30:59.133Z,0.32
2023-01-20T04:31:59.039Z,0.32
2023-01-20T04:32:58.998Z,0.31
2023-01-20T04:33:58.998Z,0.29
2023-01-20T04:34:58.975Z,0.28
2023-01-20T04:35:58.993Z,0.26
2023-01-20T04:36:58.939Z,0.23
2023-01-20T04:37:58.977Z,0.20
2023-01-20T04:38:58.913Z,0.20
2023-01-20T04:39:58.940Z,0.15
2023-01-20T04:40:58.894Z,0.15
2023-01-20T04:41:58.914Z,0.10
2023-01-20T04:42:58.885Z,0.10
2023-01-20T04:43:58.900Z,0.10
2023-01-20T04:44:58.876Z,0.13
2023-01-20T04:45:58.888Z,0.13
2023-01-20T04:46:58.834Z,0.14
2023-01-20T04:47:58.859Z,0.17
2023-01-20T04:48:58.814Z,0.17
2023-01-20T04:49:58.837Z,0.20
2023-01-20T04:50:58.817Z,0.21
2023-01-20T04:51:58.812Z,0.23
2023-01-20T04:53:00.697Z,0.26
2023-01-20T04:53:58.780Z,0.26
2023-01-20T04:54:58.755Z,0.26
2023-01-20T04:55:58.761Z,0.24
2023-01-20T04:56:58.745Z,0.24
2023-01-20T04:57:58.732Z,0.23
2023-01-20T04:58:58.718Z,0.23
2023-01-20T04:59:58.740Z,0.17
2023-01-20T05:00:58.729Z,0.20
2023-01-20T05:01:58.908Z,0.18
2023-01-20T05:02:58.701Z,0.18
2023-01-20T05:03:58.676Z,0.18
2023-01-20T05:04:58.669Z,0.17
2023-01-20T05:05:58.675Z,0.18
2023-01-20T05:06:58.645Z,0.20
2023-01-20T05:07:58.651Z,0.21
2023-01-20T05:08:58.629Z,0.24
2023-01-20T05:09:58.649Z,0.24
2023-01-20T05:10:58.624Z,0.24
2023-01-20T05:11:58.599Z,0.26
2023-01-20T05:12:58.565Z,0.28
2023-01-20T05:13:58.590Z,0.28
2023-01-20T05:14:58.548Z,0.29
2023-01-20T05:16:00.148Z,0.32
2023-01-20T05:16:58.539Z,0.33
2023-01-20T05:17:58.580Z,0.38
2023-01-20T05:18:58.503Z,0.41
2023-01-20T05:19:58.529Z,0.39
2023-01-20T05:20:58.485Z,0.42
2023-01-20T05:21:58.501Z,0.44
2023-01-20T05:23:01.120Z,0.47
2023-01-20T05:23:58.484Z,0.47
2023-01-20T05:24:58.443Z,0.50
2023-01-20T05:25:58.472Z,0.51
2023-01-20T05:26:58.445Z,0.53
2023-01-20T05:27:58.466Z,0.51
2023-01-20T05:28:58.412Z,0.53
2023-01-20T05:29:58.413Z,0.51
2023-01-20T05:30:58.459Z,0.53
2023-01-20T05:31:58.404Z,0.50
2023-01-20T05:32:58.395Z,0.49
2023-01-20T05:33:58.370Z,0.47
2023-01-20T05:34:58.360Z,0.50
2023-01-20T05:35:58.375Z,0.49
2023-01-20T05:36:58.332Z,0.49
2023-01-20T05:37:58.335Z,0.51
2023-01-20T05:38:58.325Z,0.53
2023-01-20T05:39:58.328Z,0.51
2023-01-20T05:40:58.288Z,0.51
2023-01-20T05:41:58.305Z,0.51
2023-01-20T05:42:58.273Z,0.50
2023-01-20T05:43:58.303Z,0.50
2023-01-20T05:44:58.259Z,0.50
2023-01-20T05:45:58.289Z,0.53
2023-01-20T05:46:58.250Z,0.50
2023-01-20T05:47:58.253Z,0.51
2023-01-20T05:48:58.229Z,0.50
2023-01-20T05:49:58.240Z,0.51
2023-01-20T05:50:58.196Z,0.53
2023-01-20T05:51:58.214Z,0.51
2023-01-20T05:52:58.192Z,0.51
2023-01-20T05:53:58.187Z,0.50
2023-01-20T05:54:58.162Z,0.50
2023-01-20T05:55:58.165Z,0.49
2023-01-20T05:56:58.134Z,0.47
2023-01-20T05:57:58.163Z,0.47
2023-01-20T05:58:58.128Z,0.47
2023-01-20T05:59:58.127Z,0.47
2023-01-20T06:00:58.093Z,0.49
2023-01-20T06:01:58.953Z,0.50
2023-01-20T06:02:58.096Z,0.51
2023-01-20T06:03:58.118Z,0.55
2023-01-20T06:04:58.064Z,0.57
2023-01-20T06:05:58.053Z,0.55
2023-01-20T06:06:58.046Z,0.61
2023-01-20T06:07:58.055Z,0.62
2023-01-20T06:08:58.021Z,0.62
2023-01-20T06:09:58.028Z,0.65
2023-01-20T06:10:58.012Z,0.62
2023-01-20T06:11:58.018Z,0.61
2023-01-20T06:12:57.978Z,0.60
2023-01-20T06:13:58.009Z,0.58
2023-01-20T06:14:57.971Z,0.57
2023-01-20T06:15:58.039Z,0.55
2023-01-20T06:16:57.944Z,0.55
2023-01-20T06:17:57.962Z,0.53
2023-01-20T06:18:57.943Z,0.50
2023-01-20T06:19:57.945Z,0.51
2023-01-20T06:20:57.913Z,0.53
2023-01-20T06:21:57.882Z,0.53
2023-01-20T06:22:57.913Z,0.53
2023-01-20T06:23:57.898Z,0.53
2023-01-20T06:24:57.863Z,0.51
2023-01-20T06:25:57.870Z,0.51
2023-01-20T06:26:57.829Z,0.53
2023-01-20T06:27:57.846Z,0.53
2023-01-20T06:28:57.851Z,0.50
2023-01-20T06:29:57.823Z,0.51
2023-01-20T06:30:57.878Z,0.51
2023-01-20T06:31:57.819Z,0.51
2023-01-20T06:32:57.789Z,0.50
2023-01-20T06:33:57.838Z,0.51
2023-01-20T06:34:57.757Z,0.51
2023-01-20T06:35:57.763Z,0.50
2023-01-20T06:36:57.733Z,0.47
2023-01-20T06:37:57.768Z,0.44
2023-01-20T06:38:57.660Z,0.42
2023-01-20T06:39:57.746Z,0.39
2023-01-20T06:40:57.649Z,0.41
2023-01-20T06:41:57.668Z,0.41
2023-01-20T06:42:57.617Z,0.41
2023-01-20T06:43:57.683Z,0.41
2023-01-20T06:44:57.667Z,0.42
2023-01-20T06:45:57.643Z,0.46
2023-01-20T06:46:57.575Z,0.46
2023-01-20T06:47:57.611Z,0.47
2023-01-20T06:48:57.609Z,0.49
2023-01-20T06:49:57.615Z,0.49
2023-01-20T06:50:57.612Z,0.50
2023-01-20T06:51:57.618Z,0.50
2023-01-20T06:52:57.578Z,0.49
2023-01-20T06:53:57.568Z,0.50
2023-01-20T06:54:57.510Z,0.50
2023-01-20T06:55:57.540Z,0.50
2023-01-20T06:56:57.489Z,0.50
2023-01-20T06:57:57.487Z,0.51
2023-01-20T06:58:57.464Z,0.51
2023-01-20T06:59:57.469Z,0.51
2023-01-20T07:00:57.449Z,0.51
2023-01-20T07:01:57.546Z,0.50
2023-01-20T07:02:57.423Z,0.50
2023-01-20T07:03:57.425Z,0.51
2023-01-20T07:04:57.427Z,0.51
2023-01-20T07:05:57.449Z,0.51
2023-01-20T07:06:57.463Z,0.50
2023-01-20T07:07:57.394Z,0.51
2023-01-20T07:08:58.859Z,0.53
2023-01-20T07:09:57.388Z,0.55
2023-01-20T07:10:57.346Z,0.53
2023-01-20T07:11:57.353Z,0.55
2023-01-20T07:12:57.317Z,0.55
2023-01-20T07:13:57.349Z,0.53
2023-01-20T07:14:57.302Z,0.55
2023-01-20T07:15:57.332Z,0.55
2023-01-20T07:16:57.308Z,0.55
2023-01-20T07:17:57.283Z,0.57
2023-01-20T07:18:57.282Z,0.58
2023-01-20T07:19:57.289Z,0.60
2023-01-20T07:20:57.244Z,0.61
2023-01-20T07:21:57.264Z,0.61
2023-01-20T07:22:57.219Z,0.62
2023-01-20T07:23:57.251Z,0.65
2023-01-20T07:24:57.197Z,0.61
2023-01-20T07:25:57.213Z,0.61
2023-01-20T07:26:57.177Z,0.60
2023-01-20T07:27:57.197Z,0.58
2023-01-20T07:28:57.160Z,0.58
2023-01-20T07:29:57.170Z,0.60
2023-01-20T07:30:57.185Z,0.58
2023-01-20T07:31:57.203Z,0.58
2023-01-20T07:32:57.121Z,0.58
2023-01-20T07:33:57.155Z,0.60
2023-01-20T07:34:57.103Z,0.58
2023-01-20T07:35:57.109Z,0.60
2023-01-20T07:36:57.086Z,0.61
2023-01-20T07:37:57.114Z,0.66
2023-01-20T07:38:57.073Z,0.68
2023-01-20T07:39:57.080Z,0.68
2023-01-20T07:40:57.049Z,0.68
2023-01-20T07:41:57.045Z,0.68
2023-01-20T07:42:57.057Z,0.68
2023-01-20T07:43:57.023Z,0.72
2023-01-20T07:44:57.032Z,0.72
2023-01-20T07:45:57.047Z,0.73
2023-01-20T07:46:57.013Z,0.75
2023-01-20T07:47:56.992Z,0.76
2023-01-20T07:48:56.993Z,0.76
2023-01-20T07:49:56.974Z,0.75
2023-01-20T07:50:56.985Z,0.76
2023-01-20T07:51:56.935Z,0.76
2023-01-20T07:52:56.958Z,0.75
2023-01-20T07:53:56.922Z,0.76
2023-01-20T07:54:56.915Z,0.78
2023-01-20T07:55:56.894Z,0.78
2023-01-20T07:56:56.892Z,0.76
2023-01-20T07:57:56.886Z,0.80
2023-01-20T07:58:56.907Z,0.80
2023-01-20T07:59:56.860Z,0.83
2023-01-20T08:00:56.904Z,0.83
2023-01-20T08:01:56.896Z,0.79
2023-01-20T08:02:56.971Z,0.80
2023-01-20T08:03:56.807Z,0.83
2023-01-20T08:04:56.885Z,0.84
2023-01-20T08:05:56.791Z,0.86
2023-01-20T08:06:56.831Z,0.83
2023-01-20T08:07:56.795Z,0.84
2023-01-20T08:08:58.817Z,0.84
2023-01-20T08:09:56.786Z,0.87
2023-01-20T08:10:56.820Z,0.87
2023-01-20T08:11:56.732Z,0.90
2023-01-20T08:12:56.757Z,0.88
2023-01-20T08:13:56.732Z,0.91
2023-01-20T08:14:56.732Z,0.88
2023-01-20T08:15:56.728Z,0.91
2023-01-20T08:16:56.796Z,0.93
2023-01-20T08:17:56.673Z,0.93
2023-01-20T08:18:56.830Z,0.91
2023-01-20T08:19:56.659Z,0.93
2023-01-20T08:20:56.686Z,0.93
2023-01-20T08:21:56.662Z,0.93
2023-01-20T08:22:56.655Z,0.94
2023-01-20T08:23:56.717Z,0.94
2023-01-20T08:24:56.626Z,0.96
2023-01-20T08:25:56.616Z,0.96
2023-01-20T08:26:56.619Z,0.94
2023-01-20T08:27:56.585Z,0.94
2023-01-20T08:28:56.575Z,0.94
2023-01-20T08:29:56.564Z,0.94
2023-01-20T08:30:56.673Z,0.94
2023-01-20T08:31:56.575Z,0.94
2023-01-20T08:32:56.576Z,0.90
2023-01-20T08:33:56.511Z,0.87
2023-01-20T08:34:56.512Z,0.84
2023-01-20T08:35:56.503Z,0.86
2023-01-20T08:36:56.521Z,0.84
2023-01-20T08:37:56.481Z,0.84
2023-01-20T08:38:56.490Z,0.86
2023-01-20T08:39:56.459Z,0.87
2023-01-20T08:40:56.471Z,0.90
2023-01-20T08:41:56.436Z,0.91
2023-01-20T08:42:56.441Z,0.94
2023-01-20T08:43:56.451Z,0.94
2023-01-20T08:44:56.447Z,0.94
2023-01-20T08:45:56.397Z,0.93
2023-01-20T08:46:56.415Z,0.91
2023-01-20T08:47:56.412Z,0.91
2023-01-20T08:48:56.388Z,0.91
2023-01-20T08:49:56.368Z,0.93
2023-01-20T08:50:56.379Z,0.94
2023-01-20T08:51:56.345Z,0.98
2023-01-20T08:52:56.347Z,1.00
2023-01-20T08:53:56.334Z,1.04
2023-01-20T08:54:56.338Z,1.05
2023-01-20T08:55:56.295Z,1.04
2023-01-20T08:56:56.314Z,1.05
2023-01-20T08:57:56.281Z,1.08
2023-01-20T08:58:56.295Z,1.09
2023-01-20T08:59:56.278Z,1.12
2023-01-20T09:00:56.362Z,1.12
2023-01-20T09:01:56.299Z,1.11
2023-01-20T09:02:56.253Z,1.06
2023-01-20T09:04:05.487Z,1.04
2023-01-20T09:04:56.251Z,1.04
2023-01-20T09:05:56.196Z,1.02
2023-01-20T09:06:56.225Z,1.04
2023-01-20T09:07:56.169Z,0.98
2023-01-20T09:08:56.189Z,1.02
2023-01-20T09:09:56.167Z,1.06
2023-01-20T09:10:56.162Z,1.08
2023-01-20T09:11:56.125Z,1.12
2023-01-20T09:12:56.169Z,1.14
2023-01-20T09:13:56.131Z,1.14
2023-01-20T09:14:56.355Z,1.15
2023-01-20T09:15:55.106Z,1.18
2023-01-20T09:16:56.114Z,1.20
2023-01-20T09:17:56.095Z,1.20
2023-01-20T09:18:56.100Z,1.20
2023-01-20T09:19:56.073Z,1.24
2023-01-20T09:20:56.068Z,1.23
2023-01-20T09:21:56.026Z,1.24
2023-01-20T09:22:56.063Z,1.26
2023-01-20T09:23:56.023Z,1.24
2023-01-20T09:24:56.016Z,1.29
2023-01-20T09:25:56.006Z,1.29
2023-01-20T09:26:56.005Z,1.26
2023-01-20T09:27:55.985Z,1.30
2023-01-20T09:28:56.000Z,1.33
2023-01-20T09:29:55.956Z,1.33
2023-01-20T09:30:56.079Z,1.36
2023-01-20T09:31:56.030Z,1.40
2023-01-20T09:32:55.957Z,1.41
2023-01-20T09:33:55.928Z,1.40
2023-01-20T09:34:55.949Z,1.34
2023-01-20T09:35:55.900Z,1.32
2023-01-20T09:36:55.949Z,1.29
2023-01-20T09:37:55.875Z,1.32
2023-01-20T09:38:55.880Z,1.33
2023-01-20T09:39:55.867Z,1.32
2023-01-20T09:40:55.879Z,1.32
2023-01-20T09:41:55.831Z,1.36
2023-01-20T09:42:55.850Z,1.42
2023-01-20T09:43:55.801Z,1.42
2023-01-20T09:44:55.843Z,1.44
2023-01-20T09:45:55.844Z,1.44
2023-01-20T09:46:55.806Z,1.45
2023-01-20T09:48:02.301Z,1.48
2023-01-20T09:48:55.783Z,1.52
2023-01-20T09:49:55.768Z,1.59
2023-01-20T09:50:55.767Z,1.65
2023-01-20T09:51:55.724Z,1.70
2023-01-20T09:52:55.734Z,1.77
2023-01-20T09:53:55.713Z,1.80
2023-01-20T09:54:55.730Z,1.79
2023-01-20T09:55:55.699Z,1.79
2023-01-20T09:56:55.697Z,1.83
2023-01-20T09:57:55.676Z,1.87
2023-01-20T09:58:55.690Z,1.87
2023-01-20T09:59:55.648Z,1.88
2023-01-20T10:00:55.662Z,1.91
2023-01-20T10:01:55.695Z,1.91
2023-01-20T10:02:55.660Z,1.98
2023-01-20T10:03:55.601Z,2.02
2023-01-20T10:04:55.642Z,2.03
2023-01-20T10:05:55.593Z,2.03
2023-01-20T10:06:55.603Z,1.95
2023-01-20T10:07:55.581Z,1.95
2023-01-20T10:09:04.873Z,1.95
2023-01-20T10:09:55.553Z,1.86
2023-01-20T10:10:55.562Z,1.79
2023-01-20T10:11:55.537Z,1.79
2023-01-20T10:12:55.543Z,1.83
2023-01-20T10:13:55.504Z,1.87
2023-01-20T10:14:55.628Z,1.93
2023-01-20T10:15:55.546Z,1.98
2023-01-20T10:16:55.503Z,1.99
2023-01-20T10:17:55.471Z,2.02
2023-01-20T10:18:55.468Z,1.98
2023-01-20T10:19:55.755Z,1.91
2023-01-20T10:20:55.469Z,1.93
2023-01-20T10:21:55.464Z,1.93
2023-01-20T10:22:55.444Z,1.88
2023-01-20T10:23:55.401Z,1.79
2023-01-20T10:24:55.423Z,1.80
2023-01-20T10:25:55.379Z,1.76
2023-01-20T10:26:55.420Z,1.72
2023-01-20T10:27:55.360Z,1.76
2023-01-20T10:28:55.374Z,1.80
2023-01-20T10:29:55.337Z,1.84
2023-01-20T10:30:55.430Z,1.88
2023-01-20T10:31:55.352Z,1.95
2023-01-20T10:32:55.336Z,2.00
2023-01-20T10:33:55.304Z,2.02
2023-01-20T10:34:56.685Z,1.99
2023-01-20T10:35:55.265Z,2.02
2023-01-20T10:36:55.275Z,2.09
2023-01-20T10:37:55.260Z,2.17
2023-01-20T10:38:55.279Z,2.18
2023-01-20T10:39:55.241Z,2.20
2023-01-20T10:40:55.257Z,2.20
2023-01-20T10:41:55.206Z,2.28
2023-01-20T10:42:55.217Z,2.38
2023-01-20T10:43:55.202Z,2.48
2023-01-20T10:44:55.205Z,2.53
2023-01-20T10:45:55.183Z,2.52
2023-01-20T10:46:55.168Z,2.53
2023-01-20T10:47:55.161Z,2.52
2023-01-20T10:48:55.158Z,2.57
2023-01-20T10:49:55.140Z,2.66
2023-01-20T10:50:55.140Z,2.72
2023-01-20T10:51:55.101Z,2.71
2023-01-20T10:52:55.120Z,2.75
2023-01-20T10:53:55.093Z,2.79
2023-01-20T10:54:55.084Z,2.85
2023-01-20T10:55:57.182Z,2.81
2023-01-20T10:56:55.081Z,2.77
2023-01-20T10:57:55.036Z,2.77
2023-01-20T10:58:55.059Z,2.79
2023-01-20T10:59:55.024Z,2.85
2023-01-20T11:00:55.028Z,2.89
2023-01-20T11:02:06.291Z,2.96
2023-01-20T11:02:56.462Z,2.96
2023-01-20T11:03:54.976Z,2.90
2023-01-20T11:04:55.009Z,2.87
2023-01-20T11:05:54.972Z,2.85
2023-01-20T11:06:54.962Z,2.81
2023-01-20T11:07:54.957Z,2.82
2023-01-20T11:08:54.946Z,2.89
2023-01-20T11:09:54.926Z,2.90
2023-01-20T11:10:54.916Z,2.90
2023-01-20T11:11:54.912Z,2.85
2023-01-20T11:12:54.933Z,2.74
2023-01-20T11:13:54.877Z,2.59
2023-01-20T11:14:54.892Z,2.53
2023-01-20T11:15:54.900Z,2.49
2023-01-20T11:16:54.864Z,2.53
2023-01-20T11:17:54.832Z,2.54
2023-01-20T11:18:54.836Z,2.59
2023-01-20T11:19:54.814Z,2.69
2023-01-20T11:20:54.878Z,2.79
2023-01-20T11:21:54.797Z,2.87
2023-01-20T11:22:54.808Z,2.95
2023-01-20T11:23:54.768Z,3.02
2023-01-20T11:24:54.781Z,3.05
2023-01-20T11:25:54.746Z,3.02
2023-01-20T11:26:54.781Z,3.06
2023-01-20T11:27:54.726Z,3.08
2023-01-20T11:28:54.756Z,3.13
2023-01-20T11:29:54.708Z,3.15
2023-01-20T11:30:54.748Z,3.18
2023-01-20T11:31:54.784Z,3.14
2023-01-20T11:32:54.696Z,3.11
2023-01-20T11:33:54.668Z,3.00
2023-01-20T11:34:54.672Z,2.97
2023-01-20T11:35:54.647Z,3.02
2023-01-20T11:36:54.674Z,3.02
2023-01-20T11:37:54.622Z,3.06
2023-01-20T11:38:54.643Z,3.14
2023-01-20T11:39:54.603Z,3.14
2023-01-20T11:40:54.609Z,3.08
2023-01-20T11:41:54.581Z,3.10
2023-01-20T11:42:54.608Z,3.15
2023-01-20T11:43:54.565Z,3.14
2023-01-20T11:44:54.584Z,3.00
2023-01-20T11:45:54.542Z,2.99
2023-01-20T11:46:54.632Z,3.00
2023-01-20T11:47:54.517Z,3.02
2023-01-20T11:48:55.061Z,2.99
2023-01-20T11:49:54.504Z,2.96
2023-01-20T11:50:54.504Z,2.84
2023-01-20T11:51:54.567Z,2.79
2023-01-20T11:52:54.506Z,2.78
2023-01-20T11:53:54.463Z,2.75
2023-01-20T11:54:54.461Z,2.69
2023-01-20T11:55:54.439Z,2.67
2023-01-20T11:56:54.441Z,2.69
2023-01-20T11:57:54.447Z,2.72
2023-01-20T11:58:54.411Z,2.67
2023-01-20T11:59:54.428Z,2.63
2023-01-20T12:00:54.397Z,2.60
2023-01-20T12:01:54.450Z,2.61
2023-01-20T12:02:54.365Z,2.63
2023-01-20T12:03:54.459Z,2.59
2023-01-20T12:04:54.344Z,2.52
2023-01-20T12:05:55.099Z,2.41
2023-01-20T12:06:54.335Z,2.42
2023-01-20T12:07:54.364Z,2.42
2023-01-20T12:08:54.307Z,2.39
2023-01-20T12:09:54.330Z,2.39
2023-01-20T12:10:54.294Z,2.38
2023-01-20T12:11:54.299Z,2.42
2023-01-20T12:12:54.271Z,2.39
2023-01-20T12:13:54.266Z,2.38
2023-01-20T12:14:54.242Z,2.38
2023-01-20T12:15:54.246Z,2.38
2023-01-20T12:16:54.239Z,2.35
2023-01-20T12:17:54.261Z,2.31
2023-01-20T12:19:01.881Z,2.24
2023-01-20T12:19:54.278Z,2.23
2023-01-20T12:20:55.297Z,2.24
2023-01-20T12:21:54.198Z,2.27
2023-01-20T12:22:54.165Z,2.34
2023-01-20T12:23:54.216Z,2.35
2023-01-20T12:24:54.648Z,2.38
2023-01-20T12:25:54.208Z,2.39
2023-01-20T12:26:54.123Z,2.38
2023-01-20T12:27:54.138Z,2.35
2023-01-20T12:28:54.109Z,2.27
2023-01-20T12:29:54.124Z,2.23
2023-01-20T12:30:54.147Z,2.20
2023-01-20T12:31:54.127Z,2.17
2023-01-20T12:32:54.080Z,2.12
2023-01-20T12:33:54.122Z,2.09
2023-01-20T12:34:54.035Z,2.03
2023-01-20T12:35:54.074Z,1.95
2023-01-20T12:36:54.017Z,1.95
2023-01-20T12:37:54.043Z,1.98
2023-01-20T12:38:53.996Z,1.93
2023-01-20T12:39:54.049Z,1.95
2023-01-20T12:40:53.976Z,1.91
2023-01-20T12:41:53.995Z,1.91
2023-01-20T12:42:53.955Z,1.86
2023-01-20T12:43:53.965Z,1.84
2023-01-20T12:44:53.937Z,1.80
2023-01-20T12:45:53.948Z,1.76
2023-01-20T12:46:53.905Z,1.77
2023-01-20T12:47:53.915Z,1.79
2023-01-20T12:48:53.901Z,1.77
2023-01-20T12:49:53.904Z,1.83
2023-01-20T12:50:53.880Z,1.87
2023-01-20T12:51:53.871Z,1.90
2023-01-20T12:52:53.871Z,1.93
2023-01-20T12:53:53.866Z,1.99
2023-01-20T12:54:53.846Z,2.02
2023-01-20T12:55:53.849Z,2.05
2023-01-20T12:56:53.803Z,2.05
2023-01-20T12:57:53.822Z,2.09
2023-01-20T12:58:53.783Z,2.14
2023-01-20T12:59:53.799Z,2.20
2023-01-20T13:00:53.821Z,2.24
2023-01-20T13:01:53.773Z,2.25
2023-01-20T13:02:53.848Z,2.27
2023-01-20T13:03:53.784Z,2.31
2023-01-20T13:04:53.729Z,2.36
2023-01-20T13:05:53.766Z,2.35
2023-01-20T13:06:53.698Z,2.34
2023-01-20T13:07:53.733Z,2.36
2023-01-20T13:08:53.675Z,2.41
2023-01-20T13:09:53.692Z,2.42
2023-01-20T13:10:53.672Z,2.41
2023-01-20T13:11:53.673Z,2.46
2023-01-20T13:12:53.684Z,2.49
2023-01-20T13:13:57.743Z,2.57
2023-01-20T13:14:53.639Z,2.64
2023-01-20T13:15:53.633Z,2.72
2023-01-20T13:16:53.687Z,2.79
2023-01-20T13:17:53.608Z,2.78